Latest Coastal Weather Observations for Friendly Beaches

IDT60701

Issued at 2:21 am EST Sunday 2 August 2015 (issued every 10 minutes, with the page automatically refreshed every 10 minutes)

About coastal observations | Map of coastal stations | Coastal observations for TAS | Marine services | Other Formats
Station Details ID: 092114 Name: FRIENDLY BEACHES Lat: -42.00 Lon: 148.28 Height: 55.0 m
Data from the previous 72 hours. | See also: Recent months at Friendly Beaches
Date/Time
EST
Temp

°C
Wind Pressure Rain
since 9am
mm
Weather Cloud Vis
km
Sea
Height
m
Swell
Dir
 
Speed
knots
Gust
knots
hPa Trend Height
m
Period
s
Dir
02/02:00am 8.0 NW 11 22 1006.1 - 0.4 - - - - - - -
02/01:30am 7.5 NNW 9 20 1006.2 - 0.4 - - - - - - -
02/01:00am 6.8 NW 5 12 1006.8 - 0.4 - - - - - - -
02/12:30am 6.1 N 2 5 1007.4 - 0.4 - - - - - - -
02/12:00am 6.0 N 3 5 1007.6 - 0.4 - - - - - - -
 
Date/Time
EST
Temp

°C
Wind Pressure Rain
since 9am
mm
Weather Cloud Vis
km
Sea
Height
m
Swell
Dir
 
Speed
knots
Gust
knots
hPa Trend Height
m
Period
s
Dir
01/11:30pm 6.4 N 4 7 1008.1 - 0.4 - - - - - - -
01/11:00pm 6.3 NW 3 5 1008.1 - 0.4 - - - - - - -
01/10:30pm 7.0 NW 7 10 1008.3 - 0.4 - - - - - - -
01/10:00pm 7.5 NW 14 23 1008.1 - 0.4 - - - - - - -
01/09:37pm 7.5 NNW 15 26 1007.9 - 0.4 - - - - - - -
01/09:30pm 7.5 NW 14 25 1008.0 - 0.4 - - - - - - -
01/09:00pm 7.5 NW 12 25 1008.1 - 0.4 - - - - - - -
01/08:33pm 7.7 NW 15 25 1007.9 - 0.4 - - - - - - -
01/08:30pm 7.7 NW 14 25 1007.9 - 0.4 - - - - - - -
01/08:00pm 7.4 NW 10 17 1008.0 - 0.4 - - - - - - -
01/07:30pm 7.1 NW 7 11 1007.8 - 0.4 - - - - - - -
01/07:00pm 7.4 NW 7 11 1007.9 - 0.4 - - - - - - -
01/06:30pm 7.9 NW 7 12 1007.7 - 0.4 - - - - - - -
01/06:00pm 8.3 WNW 11 20 1006.8 - 0.4 - - - - - - -
01/05:30pm 8.1 NW 7 10 1006.7 - 0.4 - - - - - - -
01/05:00pm 8.8 NW 7 14 1006.4 - 0.4 - - - - - - -
01/04:30pm 10.1 WNW 9 18 1005.9 - 0.4 - - - - - - -
01/04:00pm 10.2 WSW 8 15 1005.4 - 0.4 - - - - - - -
01/03:30pm 10.9 WSW 9 15 1005.5 - 0.4 - - - - - - -
01/03:00pm 11.4 W 10 17 1005.6 - 0.4 - - - - - - -
01/02:30pm 11.1 WNW 14 24 1004.6 - 0.4 - - - - - - -
01/02:00pm 11.5 W 13 21 1004.1 - 0.4 - - - - - - -
01/01:30pm 11.3 W 13 19 1004.1 - 0.4 - - - - - - -
01/01:00pm 10.9 WSW 12 23 1003.7 - 0.4 - - - - - - -
01/12:30pm 11.3 WSW 10 19 1003.7 - 0.4 - - - - - - -
01/12:00pm 10.7 WSW 13 23 1003.6 - 0.4 - - - - - - -
01/11:50am 10.6 WSW 15 26 1003.5 - 0.4 - - - - - - -
01/11:30am 10.3 WSW 13 23 1003.4 - 0.4 - - - - - - -
01/11:00am 9.1 W 10 19 1002.8 - 0.4 - - - - - - -
01/10:30am 6.4 W 8 14 1002.5 - 0.4 - - - - - - -
01/10:00am 8.1 WSW 16 28 1002.1 - 0.0 - - - - - - -
01/09:57am 9.3 WSW 13 27 1001.8 - 0.0 - - - - - - -
01/09:30am 11.2 W 8 15 1000.7 - 0.0 - - - - - - -
01/09:00am 10.4 WNW 10 18 999.9 - 0.2 - - - - - - -
01/08:30am 9.5 WNW 11 19 999.3 - 0.2 - - - - - - -
01/08:00am 9.1 NW 8 16 999.1 - 0.2 - - - - - - -
01/07:30am 8.9 NW 8 15 998.8 - 0.0 - - - - - - -
01/07:00am 10.0 NW 11 23 998.0 - 0.0 - - - - - - -
01/06:30am 10.7 NW 11 21 997.6 - 0.0 - - - - - - -
01/06:00am 10.7 NW 12 24 997.7 - 0.0 - - - - - - -
01/05:30am 10.0 N 6 13 998.2 - 0.0 - - - - - - -
01/05:00am 9.8 N 6 12 998.5 - 0.0 - - - - - - -
01/04:30am 10.3 NNW 10 20 998.5 - 0.0 - - - - - - -
01/04:00am 10.4 NNW 8 15 999.2 - 0.0 - - - - - - -
01/03:30am 10.5 NNW 10 20 999.7 - 0.0 - - - - - - -
01/03:00am 10.3 N 10 16 1000.9 - 0.0 - - - - - - -
01/02:30am 9.9 N 10 17 1001.4 - 0.0 - - - - - - -
01/02:00am 9.8 N 9 15 1002.0 - 0.0 - - - - - - -
01/01:30am 9.6 N 9 16 1003.5 - 0.0 - - - - - - -
01/01:00am 9.4 N 6 13 1003.9 - 0.0 - - - - - - -
01/12:30am 8.7 N 5 9 1004.7 - 0.0 - - - - - - -
01/12:00am 8.6 N 5 9 1006.0 - 0.0 - - - - - - -
 
Date/Time
EST
Temp

°C
Wind Pressure Rain
since 9am
mm
Weather Cloud Vis
km
Sea
Height
m
Swell
Dir
 
Speed
knots
Gust
knots
hPa Trend Height
m
Period
s
Dir
31/11:30pm 9.0 N 10 19 1006.6 - 0.0 - - - - - - -
31/11:00pm 9.0 N 10 16 1007.2 - 0.0 - - - - - - -
31/10:30pm 9.1 N 11 18 1007.6 - 0.0 - - - - - - -
31/10:00pm 8.2 NNW 7 11 1008.3 - 0.0 - - - - - - -
31/09:30pm 7.8 N 4 7 1009.0 - 0.0 - - - - - - -
31/09:00pm 8.0 N 6 9 1009.6 - 0.0 - - - - - - -
31/08:30pm 8.0 N 4 6 1010.2 - 0.0 - - - - - - -
31/08:00pm 7.5 N 4 5 1010.6 - 0.0 - - - - - - -
31/07:30pm 7.2 N 4 6 1010.6 - 0.0 - - - - - - -
31/07:00pm 7.6 NNW 4 10 1011.0 - 0.0 - - - - - - -
31/06:30pm 7.2 N 4 5 1011.2 - 0.0 - - - - - - -
31/06:00pm 7.6 N 6 7 1011.0 - 0.0 - - - - - - -
31/05:30pm 7.4 N 4 5 1011.1 - 0.0 - - - - - - -
31/05:00pm 8.7 NW 2 3 1011.1 - 0.0 - - - - - - -
31/04:30pm 10.5 NW 6 11 1011.4 - 0.0 - - - - - - -
31/04:00pm 10.8 NW 8 15 1011.6 - 0.0 - - - - - - -
31/03:30pm 11.2 WNW 6 13 1012.1 - 0.0 - - - - - - -
31/03:00pm 11.8 WNW 6 12 1012.5 - 0.0 - - - - - - -
31/02:30pm 11.2 WNW 10 18 1012.5 - 0.0 - - - - - - -
31/02:00pm 12.0 WNW 7 12 1012.9 - 0.0 - - - - - - -
31/01:30pm 12.1 W 6 11 1013.0 - 0.0 - - - - - - -
31/01:00pm 11.7 NW 5 12 1013.4 - 0.0 - - - - - - -
31/12:30pm 11.2 NW 8 15 1014.0 - 0.0 - - - - - - -
31/12:00pm 11.0 NNW 4 7 1014.5 - 0.0 - - - - - - -
31/11:30am 11.4 N 3 6 1015.1 - 0.0 - - - - - - -
31/11:00am 11.0 NNW 4 9 1015.2 - 0.0 - - - - - - -
31/10:30am 10.2 N 4 6 1015.2 - 0.0 - - - - - - -
31/10:00am 8.3 NW 2 5 1015.1 - 0.0 - - - - - - -
31/09:30am 7.5 NW 4 7 1015.2 - 0.0 - - - - - - -
31/09:00am 6.4 NW 4 6 1015.1 - 0.0 - - - - - - -
31/08:30am 5.4 N 2 5 1014.8 - 0.0 - - - - - - -
31/08:00am 4.2 NNW 3 5 1014.7 - 0.0 - - - - - - -
31/07:30am 3.7 N 2 3 1014.1 - 0.0 - - - - - - -
31/07:00am 4.5 W 3 5 1013.6 - 0.0 - - - - - - -
31/06:30am 4.3 W 3 4 1013.3 - 0.0 - - - - - - -
31/06:00am 4.7 WSW 4 6 1012.9 - 0.0 - - - - - - -
31/05:30am 5.3 WSW 4 6 1012.8 - 0.0 - - - - - - -
31/05:00am 6.0 SW 7 10 1011.9 - 0.0 - - - - - - -
31/04:30am 6.4 WSW 9 15 1011.5 - 0.0 - - - - - - -
31/04:00am 6.7 WSW 11 21 1010.8 - 0.0 - - - - - - -
31/03:30am 6.3 WSW 9 15 1010.5 - 0.0 - - - - - - -
31/03:00am 6.5 WSW 8 14 1010.2 - 0.0 - - - - - - -
31/02:30am 6.8 WSW 9 16 1009.9 - 0.0 - - - - - - -
31/02:00am 6.2 WSW 7 10 1009.3 - 0.0 - - - - - - -
31/01:30am 6.7 WSW 9 14 1008.5 - 0.0 - - - - - - -
31/01:00am 7.0 WSW 8 13 1007.8 - 0.0 - - - - - - -
31/12:30am 7.5 WSW 7 12 1007.5 - 0.0 - - - - - - -
31/12:00am 8.1 WSW 11 17 1006.8 - 0.0 - - - - - - -
 
Date/Time
EST
Temp

°C
Wind Pressure Rain
since 9am
mm
Weather Cloud Vis
km
Sea
Height
m
Swell
Dir
 
Speed
knots
Gust
knots
hPa Trend Height
m
Period
s
Dir
30/11:30pm 8.8 WSW 13 25 1006.0 - 0.0 - - - - - - -
30/11:10pm 9.7 WSW 15 26 1005.2 - 0.0 - - - - - - -
30/11:00pm 10.1 WSW 15 25 1004.9 - 0.0 - - - - - - -
30/10:45pm 10.4 WSW 15 25 1004.8 - 0.0 - - - - - - -
30/10:30pm 10.7 WSW 15 25 1004.4 - 0.0 - - - - - - -
30/10:15pm 11.0 WSW 12 24 1003.9 - 0.0 - - - - - - -
30/10:00pm 10.7 WSW 6 11 1003.4 - 0.0 - - - - - - -
30/09:30pm 11.2 WNW 8 14 1003.0 - 0.0 - - - - - - -
30/09:00pm 11.1 NW 9 22 1002.4 - 0.0 - - - - - - -
30/08:30pm 10.9 NNW 5 16 1002.0 - 0.0 - - - - - - -
30/08:00pm 10.6 NNW 5 9 1001.8 - 0.0 - - - - - - -
30/07:30pm 10.9 NNW 7 17 1001.7 - 0.0 - - - - - - -
30/07:00pm 11.0 NNW 10 17 1001.7 - 0.0 - - - - - - -
30/06:30pm 11.1 NNW 10 17 1001.9 - 0.0 - - - - - - -
30/06:00pm 11.1 NNW 8 16 1002.5 - 0.0 - - - - - - -
30/05:30pm 11.1 N 7 13 1002.8 - 0.0 - - - - - - -
30/05:00pm 11.7 N 5 9 1003.3 - 0.0 - - - - - - -
30/04:30pm 12.3 N 2 5 1003.7 - 0.0 - - - - - - -
30/04:00pm 12.2 NNW 8 12 1004.1 - 0.0 - - - - - - -
30/03:30pm 12.4 NNW 10 19 1004.4 - 0.0 - - - - - - -
30/03:00pm 12.9 NNW 14 22 1004.7 - 0.0 - - - - - - -
30/02:45pm 13.2 NNW 15 26 1004.8 - 0.0 - - - - - - -
30/02:30pm 13.0 NNW 13 23 1004.9 - 0.0 - - - - - - -
30/02:00pm 12.5 NW 12 22 1005.2 - 0.0 - - - - - - -
30/01:30pm 12.2 NW 13 25 1005.8 - 0.0 - - - - - - -
30/01:00pm 12.0 NW 8 16 1007.4 - 0.0 - - - - - - -
30/12:30pm 12.1 NW 4 11 1008.1 - 0.0 - - - - - - -
30/12:00pm 12.2 W 3 11 1008.9 - 0.0 - - - - - - -
30/11:30am 11.6 N 4 11 1009.7 - 0.0 - - - - - - -
30/11:00am 11.9 N 2 4 1010.9 - 0.0 - - - - - - -
30/10:30am 12.1 NNE 2 5 1011.8 - 0.0 - - - - - - -
30/10:00am 11.9 NNE 5 7 1012.6 - 0.0 - - - - - - -
30/09:30am 10.6 NNE 3 4 1013.3 - 0.0 - - - - - - -
30/09:00am 9.7 NNE 5 7 1013.9 - 0.0 - - - - - - -
30/08:30am 9.8 NNW 5 10 1014.5 - 0.0 - - - - - - -
30/08:00am 9.8 NNW 7 13 1014.9 - 0.0 - - - - - - -
30/07:30am 9.2 N 6 10 1015.4 - 0.0 - - - - - - -
30/07:00am 9.6 NNW 6 11 1015.6 - 0.0 - - - - - - -
30/06:30am 9.6 NNW 7 11 1015.7 - 0.0 - - - - - - -
30/06:00am 9.3 NNW 5 8 1015.9 - 0.0 - - - - - - -
30/05:30am 9.2 NNW 5 8 1016.5 - 0.0 - - - - - - -
30/05:00am 9.6 N 6 13 1016.6 - 0.0 - - - - - - -
30/04:30am 9.9 NNW 7 13 1016.9 - 0.0 - - - - - - -
30/04:00am 10.1 NNW 10 15 1017.1 - 0.0 - - - - - - -
30/03:30am 9.9 NNW 9 20 1017.6 - 0.0 - - - - - - -
30/03:00am 9.4 N 5 8 1018.2 - 0.0 - - - - - - -
30/02:30am 10.5 NNW 7 11 1019.1 - 0.0 - - - - - - -

Other Formats:

Comma delimited format used in spreadsheet applications
http://www.bom.gov.au/fwo/IDT60701/IDT60701.94987.axf

JavaScript Object Notation format (JSON) in row-major order
http://www.bom.gov.au/fwo/IDT60701/IDT60701.94987.json